createdAt,value
2022-09-13T00:01:45.770Z,10.68
2022-09-13T00:04:12.624Z,10.67
2022-09-13T00:06:39.405Z,10.63
2022-09-13T00:09:06.352Z,10.49
2022-09-13T00:11:33.455Z,10.57
2022-09-13T00:14:00.369Z,10.61
2022-09-13T00:16:29.651Z,10.56
2022-09-13T00:18:58.013Z,10.60
2022-09-13T00:21:25.276Z,10.41
2022-09-13T00:23:54.082Z,10.64
2022-09-13T00:26:27.098Z,10.49
2022-09-13T00:28:56.574Z,10.59
2022-09-13T00:31:26.582Z,10.43
2022-09-13T00:33:53.973Z,10.41
2022-09-13T00:36:21.155Z,10.49
2022-09-13T00:38:47.923Z,10.48
2022-09-13T00:41:17.543Z,10.55
2022-09-13T00:43:50.864Z,10.45
2022-09-13T00:46:47.758Z,10.46
2022-09-13T00:49:37.249Z,10.47
2022-09-13T00:52:10.903Z,10.49
2022-09-13T00:54:45.594Z,10.42
2022-09-13T00:57:14.843Z,10.43
2022-09-13T00:59:50.394Z,10.43
2022-09-13T01:02:17.298Z,10.62
2022-09-13T01:04:44.931Z,10.65
2022-09-13T01:07:15.279Z,10.74
2022-09-13T01:09:46.014Z,10.60
2022-09-13T01:12:32.109Z,10.55
2022-09-13T01:15:01.323Z,10.62
2022-09-13T01:17:30.676Z,10.55
2022-09-13T01:19:58.560Z,10.49
2022-09-13T01:22:50.230Z,10.26
2022-09-13T01:25:16.923Z,10.12
2022-09-13T01:28:01.993Z,10.06
2022-09-13T01:30:38.587Z,10.08
2022-09-13T01:34:07.222Z,10.03
2022-09-13T01:37:50.533Z,9.91
2022-09-13T01:40:38.530Z,9.83
2022-09-13T01:43:46.698Z,9.86
2022-09-13T01:46:23.042Z,9.87
2022-09-13T01:49:15.569Z,9.81
2022-09-13T01:52:08.777Z,9.81
2022-09-13T01:54:50.611Z,9.82
2022-09-13T01:57:48.740Z,9.93
2022-09-13T02:00:18.788Z,9.88
2022-09-13T02:03:11.287Z,9.93
2022-09-13T02:06:08.932Z,9.81
2022-09-13T02:08:47.487Z,9.93
2022-09-13T02:11:17.561Z,9.95
2022-09-13T02:13:54.847Z,9.79
2022-09-13T02:16:32.228Z,9.88
2022-09-13T02:19:13.694Z,9.83
2022-09-13T02:21:45.274Z,10.11
2022-09-13T02:24:34.498Z,10.15
2022-09-13T02:27:32.745Z,10.27
2022-09-13T02:30:05.784Z,10.20
2022-09-13T02:32:40.758Z,10.07
2022-09-13T02:35:14.951Z,9.98
2022-09-13T02:37:47.338Z,9.74
2022-09-13T02:40:22.885Z,9.67
2022-09-13T02:43:05.071Z,9.78
2022-09-13T02:46:21.143Z,9.83
2022-09-13T02:49:08.671Z,9.64
2022-09-13T02:51:57.221Z,9.59
2022-09-13T02:54:53.249Z,9.64
2022-09-13T02:57:33.226Z,9.64
2022-09-13T03:00:00.597Z,9.67
2022-09-13T03:02:34.295Z,9.70
2022-09-13T03:05:02.619Z,9.72
2022-09-13T03:07:29.711Z,9.68
2022-09-13T03:10:04.602Z,9.47
2022-09-13T03:13:01.926Z,9.48
2022-09-13T03:15:53.574Z,9.58
2022-09-13T03:18:49.441Z,9.67
2022-09-13T03:21:33.062Z,9.63
2022-09-13T03:24:18.447Z,9.61
2022-09-13T03:27:15.236Z,9.63
2022-09-13T03:30:20.510Z,9.66
2022-09-13T03:32:58.276Z,9.67
2022-09-13T03:35:41.965Z,9.59
2022-09-13T03:38:21.701Z,9.64
2022-09-13T03:41:07.579Z,9.71
2022-09-13T03:43:43.443Z,9.55
2022-09-13T03:46:20.391Z,9.46
2022-09-13T03:48:48.025Z,9.34
2022-09-13T03:51:15.465Z,9.31
2022-09-13T03:53:52.067Z,9.20
2022-09-13T03:56:21.109Z,9.14
2022-09-13T03:58:49.334Z,9.21
2022-09-13T04:01:22.751Z,9.18
2022-09-13T04:03:53.423Z,8.97
2022-09-13T04:06:23.319Z,9.03
2022-09-13T04:08:50.263Z,9.07
2022-09-13T04:11:17.094Z,8.97
2022-09-13T04:13:43.983Z,8.99
2022-09-13T04:16:10.766Z,8.82
2022-09-13T04:18:37.556Z,8.91
2022-09-13T04:21:04.860Z,9.05
2022-09-13T04:23:31.666Z,9.13
2022-09-13T04:26:05.992Z,8.90
2022-09-13T04:28:32.768Z,8.83
2022-09-13T04:30:59.513Z,8.93
2022-09-13T04:33:26.212Z,9.02
2022-09-13T04:35:59.833Z,9.09
2022-09-13T04:38:27.329Z,9.21
2022-09-13T04:40:57.276Z,9.08
2022-09-13T04:43:24.931Z,9.08
2022-09-13T04:45:51.983Z,8.98
2022-09-13T04:48:18.929Z,9.05
2022-09-13T04:50:45.733Z,9.09
2022-09-13T04:53:12.549Z,9.11
2022-09-13T04:55:39.301Z,9.13
2022-09-13T04:58:06.367Z,9.12
2022-09-13T05:00:34.080Z,9.07
2022-09-13T05:03:01.016Z,9.22
2022-09-13T05:05:29.016Z,9.23
2022-09-13T05:07:56.226Z,9.29
2022-09-13T05:10:23.149Z,9.31
2022-09-13T05:12:49.926Z,9.28
2022-09-13T05:15:16.839Z,9.28
2022-09-13T05:17:43.564Z,9.33
2022-09-13T05:20:11.206Z,9.25
2022-09-13T05:22:38.070Z,9.09
2022-09-13T05:25:05.638Z,9.05
2022-09-13T05:27:32.334Z,9.08
2022-09-13T05:29:59.053Z,9.05
2022-09-13T05:32:25.804Z,9.08
2022-09-13T05:34:52.542Z,9.03
2022-09-13T05:37:19.343Z,9.01
2022-09-13T05:40:07.812Z,9.07
2022-09-13T05:42:32.826Z,9.20
2022-09-13T05:44:59.575Z,9.27
2022-09-13T05:47:26.339Z,9.26
2022-09-13T05:50:09.848Z,9.31
2022-09-13T05:52:37.759Z,9.39
2022-09-13T05:55:04.882Z,9.44
2022-09-13T05:57:32.004Z,9.45
2022-09-13T05:59:58.794Z,9.41
2022-09-13T06:02:25.552Z,9.38
2022-09-13T06:04:52.411Z,9.42
2022-09-13T06:07:19.132Z,9.46
2022-09-13T06:09:45.898Z,9.58
2022-09-13T06:12:12.590Z,9.70
2022-09-13T06:14:39.322Z,9.73
2022-09-13T06:17:06.552Z,9.79
2022-09-13T06:19:33.360Z,9.88
2022-09-13T06:22:00.215Z,9.86
2022-09-13T06:24:26.912Z,9.99
2022-09-13T06:26:54.311Z,10.02
2022-09-13T06:29:21.047Z,10.07
2022-09-13T06:31:47.825Z,10.09
2022-09-13T06:34:16.204Z,10.17
2022-09-13T06:36:43.310Z,10.25
2022-09-13T06:39:10.134Z,10.24
2022-09-13T06:41:37.581Z,10.29
2022-09-13T06:44:04.558Z,10.38
2022-09-13T06:46:34.798Z,10.48
2022-09-13T06:49:05.261Z,10.54
2022-09-13T06:51:33.724Z,10.61
2022-09-13T06:54:01.405Z,10.71
2022-09-13T06:56:36.226Z,10.74
2022-09-13T06:59:07.166Z,10.76
2022-09-13T07:01:38.557Z,10.90
2022-09-13T07:04:12.340Z,11.06
2022-09-13T07:06:42.738Z,11.15
2022-09-13T07:09:13.798Z,11.34
2022-09-13T07:11:42.318Z,11.53
2022-09-13T07:14:09.477Z,11.73
2022-09-13T07:16:38.579Z,11.94
2022-09-13T07:19:11.272Z,12.19
2022-09-13T07:21:38.084Z,12.41
2022-09-13T07:24:05.381Z,12.53
2022-09-13T07:26:32.276Z,12.81
2022-09-13T07:29:03.157Z,12.99
2022-09-13T07:31:37.287Z,13.18
2022-09-13T07:34:12.750Z,13.37
2022-09-13T07:36:39.460Z,13.60
2022-09-13T07:39:08.237Z,13.91
2022-09-13T07:41:37.332Z,14.10
2022-09-13T07:44:06.492Z,14.29
2022-09-13T07:46:41.545Z,14.51
2022-09-13T07:49:09.866Z,14.68
2022-09-13T07:51:39.717Z,14.97
2022-09-13T07:54:15.521Z,15.20
2022-09-13T07:56:42.904Z,15.49
2022-09-13T07:59:17.136Z,15.67
2022-09-13T08:01:47.194Z,15.95
2022-09-13T08:04:18.658Z,16.23
2022-09-13T08:06:46.859Z,16.47
2022-09-13T08:09:14.193Z,16.74
2022-09-13T08:11:51.901Z,17.01
2022-09-13T08:14:20.786Z,17.34
2022-09-13T08:16:48.111Z,17.53
2022-09-13T08:19:17.755Z,17.84
2022-09-13T08:21:45.437Z,18.06
2022-09-13T08:24:24.309Z,18.33
2022-09-13T08:26:52.190Z,18.67
2022-09-13T08:29:19.352Z,18.80
2022-09-13T08:31:46.087Z,19.11
2022-09-13T08:34:15.700Z,19.39
2022-09-13T08:36:43.342Z,19.60
2022-09-13T08:39:13.920Z,19.74
2022-09-13T08:41:42.178Z,19.98
2022-09-13T08:44:36.309Z,20.19
2022-09-13T08:47:23.948Z,20.43
2022-09-13T08:50:07.201Z,20.72
2022-09-13T08:52:36.763Z,20.92
2022-09-13T08:55:20.334Z,21.22
2022-09-13T08:57:54.994Z,21.51
2022-09-13T09:00:40.862Z,21.68
2022-09-13T09:03:42.196Z,21.93
2022-09-13T09:06:16.986Z,22.03
2022-09-13T09:08:58.113Z,22.22
2022-09-13T09:11:42.189Z,22.49
2022-09-13T09:14:49.065Z,22.51
2022-09-13T09:17:25.473Z,22.85
2022-09-13T09:20:09.715Z,23.16
2022-09-13T09:22:36.641Z,23.45
2022-09-13T09:25:05.040Z,23.48
2022-09-13T09:27:32.373Z,23.68
2022-09-13T09:29:59.382Z,23.93
2022-09-13T09:32:44.262Z,23.95
2022-09-13T09:35:28.280Z,24.02
2022-09-13T09:38:27.442Z,24.15
2022-09-13T09:40:54.227Z,24.37
2022-09-13T09:43:33.511Z,24.58
2022-09-13T09:46:03.445Z,24.66
2022-09-13T09:48:42.408Z,24.53
2022-09-13T09:51:11.866Z,24.63
2022-09-13T09:53:45.874Z,24.94
2022-09-13T09:56:23.976Z,24.88
2022-09-13T09:58:53.298Z,25.07
2022-09-13T10:01:34.158Z,25.19
2022-09-13T10:04:12.892Z,25.43
2022-09-13T10:06:42.044Z,25.54
2022-09-13T10:09:14.577Z,25.56
2022-09-13T10:11:54.033Z,25.51
2022-09-13T10:14:46.270Z,25.67
2022-09-13T10:17:29.096Z,25.84
2022-09-13T10:19:59.785Z,26.04
2022-09-13T10:22:28.435Z,26.24
2022-09-13T10:24:56.105Z,26.50
2022-09-13T10:27:43.122Z,26.63
2022-09-13T10:30:47.328Z,26.82
2022-09-13T10:33:37.490Z,26.67
2022-09-13T10:36:41.592Z,26.79
2022-09-13T10:39:18.158Z,26.90
2022-09-13T10:41:52.191Z,26.78
2022-09-13T10:44:47.551Z,27.02
2022-09-13T10:47:24.597Z,27.28
2022-09-13T10:49:54.277Z,27.52
2022-09-13T10:52:35.050Z,27.72
2022-09-13T10:55:19.966Z,27.93
2022-09-13T10:57:53.006Z,27.94
2022-09-13T11:00:24.730Z,28.02
2022-09-13T11:03:32.384Z,28.29
2022-09-13T11:06:24.602Z,28.42
2022-09-13T11:09:17.869Z,28.55
2022-09-13T11:12:06.233Z,28.69
2022-09-13T11:14:58.283Z,28.88
2022-09-13T11:17:50.634Z,28.57
2022-09-13T11:20:45.651Z,28.69
2022-09-13T11:23:35.548Z,28.78
2022-09-13T11:26:30.298Z,29.03
2022-09-13T11:29:30.491Z,29.02
2022-09-13T11:32:27.905Z,29.44
2022-09-13T11:35:50.994Z,29.58
2022-09-13T11:38:49.942Z,29.92
2022-09-13T11:41:45.321Z,30.11
2022-09-13T11:44:49.502Z,30.17
2022-09-13T11:47:43.580Z,30.37
2022-09-13T11:50:44.922Z,30.38
2022-09-13T11:53:31.877Z,30.09
2022-09-13T11:56:06.778Z,30.04
2022-09-13T11:58:43.254Z,30.06
2022-09-13T12:01:14.162Z,30.08
2022-09-13T12:04:11.656Z,30.22
2022-09-13T12:06:43.374Z,30.29
2022-09-13T12:09:18.994Z,30.37
2022-09-13T12:12:07.868Z,29.67
2022-09-13T12:14:54.646Z,29.80
2022-09-13T12:17:32.187Z,29.46
2022-09-13T12:20:02.293Z,29.29
2022-09-13T12:22:34.241Z,29.66
2022-09-13T12:25:11.254Z,29.74
2022-09-13T12:27:59.257Z,29.84
2022-09-13T12:30:37.861Z,29.65
2022-09-13T12:33:06.806Z,29.47
2022-09-13T12:36:17.733Z,29.25
2022-09-13T12:39:35.347Z,29.48
2022-09-13T12:42:49.670Z,29.63
2022-09-13T12:45:24.196Z,29.62
2022-09-13T12:48:47.930Z,29.68
2022-09-13T12:51:23.836Z,29.52
2022-09-13T12:54:17.070Z,29.59
2022-09-13T12:56:58.647Z,29.53
2022-09-13T13:00:13.020Z,29.51
2022-09-13T13:02:54.732Z,29.67
2022-09-13T13:05:31.336Z,29.80
2022-09-13T13:08:03.492Z,29.72
2022-09-13T13:10:36.962Z,29.82
2022-09-13T13:13:36.380Z,29.82
2022-09-13T13:16:34.335Z,29.76
2022-09-13T13:19:04.547Z,29.57
2022-09-13T13:21:39.158Z,29.45
2022-09-13T13:24:28.510Z,29.66
2022-09-13T13:26:58.418Z,29.67
2022-09-13T13:29:30.865Z,29.68
2022-09-13T13:31:57.564Z,29.77
2022-09-13T13:34:24.232Z,29.46
2022-09-13T13:37:32.876Z,29.34
2022-09-13T13:40:22.047Z,29.57
2022-09-13T13:42:49.101Z,29.59
2022-09-13T13:45:25.228Z,29.52
2022-09-13T13:48:55.283Z,29.70
2022-09-13T13:51:26.049Z,29.77
2022-09-13T13:54:05.942Z,29.70
2022-09-13T13:56:47.047Z,29.47
2022-09-13T13:59:25.531Z,29.48
2022-09-13T14:01:59.567Z,29.55
2022-09-13T14:05:13.530Z,29.51
2022-09-13T14:08:10.256Z,29.51
2022-09-13T14:10:58.004Z,29.33
2022-09-13T14:13:42.279Z,29.16
2022-09-13T14:16:22.878Z,28.98
2022-09-13T14:19:19.591Z,29.02
2022-09-13T14:21:46.470Z,28.95
2022-09-13T14:24:23.637Z,28.88
2022-09-13T14:26:59.288Z,29.02
2022-09-13T14:29:26.386Z,29.11
2022-09-13T14:32:01.556Z,29.12
2022-09-13T14:34:32.585Z,29.07
2022-09-13T14:37:02.643Z,28.98
2022-09-13T14:39:30.758Z,28.92
2022-09-13T14:42:16.299Z,29.12
2022-09-13T14:44:47.390Z,29.01
2022-09-13T14:47:27.061Z,29.14
2022-09-13T14:50:16.744Z,29.19
2022-09-13T14:52:52.405Z,29.61
2022-09-13T14:55:26.528Z,29.91
2022-09-13T14:58:04.316Z,30.24
2022-09-13T15:00:46.147Z,30.35
2022-09-13T15:03:16.465Z,30.40
2022-09-13T15:05:53.626Z,30.18
2022-09-13T15:08:35.257Z,30.05
2022-09-13T15:11:05.827Z,29.99
2022-09-13T15:13:34.474Z,29.99
2022-09-13T15:16:01.581Z,29.98
2022-09-13T15:18:36.954Z,29.99
2022-09-13T15:21:06.495Z,29.92
2022-09-13T15:23:37.978Z,29.82
2022-09-13T15:26:10.402Z,29.69
2022-09-13T15:28:49.052Z,29.61
2022-09-13T15:31:24.825Z,29.43
2022-09-13T15:34:20.446Z,29.35
2022-09-13T15:36:49.865Z,29.19
2022-09-13T15:39:21.930Z,29.25
2022-09-13T15:42:01.216Z,29.33
2022-09-13T15:44:32.591Z,29.37
2022-09-13T15:47:09.573Z,29.19
2022-09-13T15:49:40.958Z,29.24
2022-09-13T15:52:08.098Z,29.11
2022-09-13T15:54:41.450Z,29.18
2022-09-13T15:57:18.419Z,29.07
2022-09-13T15:59:45.401Z,28.83
2022-09-13T16:02:33.230Z,28.89
2022-09-13T16:05:00.195Z,28.68
2022-09-13T16:07:27.383Z,28.56
2022-09-13T16:09:54.454Z,28.38
2022-09-13T16:12:24.616Z,28.15
2022-09-13T16:14:51.657Z,28.16
2022-09-13T16:17:27.113Z,28.20
2022-09-13T16:19:54.921Z,28.08
2022-09-13T16:22:22.507Z,28.00
2022-09-13T16:24:50.328Z,27.83
2022-09-13T16:27:19.529Z,27.62
2022-09-13T16:29:47.474Z,27.48
2022-09-13T16:32:14.574Z,27.36
2022-09-13T16:34:41.441Z,27.22
2022-09-13T16:37:08.190Z,27.09
2022-09-13T16:39:34.971Z,26.93
2022-09-13T16:42:01.885Z,26.73
2022-09-13T16:44:28.611Z,26.63
2022-09-13T16:46:55.355Z,26.54
2022-09-13T16:49:22.153Z,26.46
2022-09-13T16:51:49.069Z,26.33
2022-09-13T16:54:15.857Z,26.14
2022-09-13T16:56:42.692Z,26.07
2022-09-13T16:59:09.642Z,25.89
2022-09-13T17:01:37.603Z,25.80
2022-09-13T17:04:04.450Z,25.64
2022-09-13T17:06:31.214Z,25.56
2022-09-13T17:09:01.711Z,25.49
2022-09-13T17:11:31.886Z,25.37
2022-09-13T17:14:01.069Z,25.25
2022-09-13T17:16:38.340Z,25.06
2022-09-13T17:19:09.476Z,25.03
2022-09-13T17:21:36.331Z,24.86
2022-09-13T17:24:03.869Z,24.78
2022-09-13T17:26:30.634Z,24.61
2022-09-13T17:28:57.510Z,24.55
2022-09-13T17:31:24.555Z,24.48
2022-09-13T17:33:53.319Z,24.31
2022-09-13T17:36:20.862Z,24.22
2022-09-13T17:38:48.258Z,24.07
2022-09-13T17:41:19.357Z,23.98
2022-09-13T17:43:47.567Z,23.91
2022-09-13T17:46:22.376Z,23.77
2022-09-13T17:48:52.248Z,23.60
2022-09-13T17:51:25.319Z,23.50
2022-09-13T17:54:07.139Z,23.33
2022-09-13T17:56:38.071Z,23.26
2022-09-13T17:59:10.589Z,23.22
2022-09-13T18:01:40.927Z,23.10
2022-09-13T18:04:08.567Z,23.00
2022-09-13T18:06:37.393Z,22.94
2022-09-13T18:09:05.053Z,22.79
2022-09-13T18:11:31.830Z,22.77
2022-09-13T18:13:58.801Z,22.73
2022-09-13T18:16:29.534Z,22.62
2022-09-13T18:18:57.066Z,22.56
2022-09-13T18:21:26.092Z,22.41
2022-09-13T18:23:58.135Z,22.43
2022-09-13T18:26:27.698Z,22.39
2022-09-13T18:29:04.259Z,22.22
2022-09-13T18:31:33.515Z,22.15
2022-09-13T18:34:04.106Z,22.09
2022-09-13T18:36:33.547Z,21.84
2022-09-13T18:39:03.128Z,21.90
2022-09-13T18:41:40.538Z,21.80
2022-09-13T18:44:09.633Z,21.61
2022-09-13T18:46:37.538Z,21.60
2022-09-13T18:49:05.802Z,21.57
2022-09-13T18:51:39.260Z,21.51
2022-09-13T18:54:08.415Z,21.49
2022-09-13T18:56:35.895Z,21.40
2022-09-13T18:59:06.355Z,21.41
2022-09-13T19:01:37.163Z,21.45
2022-09-13T19:04:12.211Z,21.43
2022-09-13T19:06:42.810Z,21.35
2022-09-13T19:09:10.907Z,21.32
2022-09-13T19:11:48.189Z,21.35
2022-09-13T19:14:27.255Z,21.29
2022-09-13T19:16:57.279Z,21.18
2022-09-13T19:19:24.839Z,21.28
2022-09-13T19:21:51.825Z,21.20
2022-09-13T19:24:20.231Z,21.13
2022-09-13T19:26:52.828Z,21.12
2022-09-13T19:29:23.540Z,21.09
2022-09-13T19:31:52.744Z,21.09
2022-09-13T19:34:22.158Z,20.97
2022-09-13T19:36:52.670Z,20.95
2022-09-13T19:39:19.578Z,20.89
2022-09-13T19:41:46.732Z,20.88
2022-09-13T19:44:15.222Z,20.86
2022-09-13T19:46:43.730Z,20.91
2022-09-13T19:49:17.253Z,20.85
2022-09-13T19:51:51.342Z,20.86
2022-09-13T19:54:19.045Z,20.82
2022-09-13T19:56:46.630Z,20.71
2022-09-13T19:59:16.904Z,20.32
2022-09-13T20:01:45.897Z,20.25
2022-09-13T20:04:18.312Z,20.26
2022-09-13T20:06:48.316Z,20.30
2022-09-13T20:09:17.535Z,20.40
2022-09-13T20:11:45.603Z,20.34
2022-09-13T20:14:15.241Z,20.36
2022-09-13T20:16:43.038Z,20.33
2022-09-13T20:19:39.426Z,20.39
2022-09-13T20:22:05.916Z,20.38
2022-09-13T20:24:32.738Z,20.35
2022-09-13T20:26:59.872Z,20.37
2022-09-13T20:29:26.634Z,20.35
2022-09-13T20:31:55.558Z,20.30
2022-09-13T20:34:22.649Z,20.29
2022-09-13T20:36:49.375Z,20.26
2022-09-13T20:39:16.379Z,20.25
2022-09-13T20:41:44.265Z,20.27
2022-09-13T20:44:12.291Z,20.23
2022-09-13T20:46:40.503Z,20.18
2022-09-13T20:49:10.546Z,20.16
2022-09-13T20:51:37.750Z,20.18
2022-09-13T20:54:05.379Z,20.13
2022-09-13T20:56:34.483Z,20.15
2022-09-13T20:59:01.936Z,20.12
2022-09-13T21:01:31.210Z,20.11
2022-09-13T21:03:59.297Z,20.13
2022-09-13T21:06:29.777Z,20.07
2022-09-13T21:08:59.956Z,19.96
2022-09-13T21:11:33.518Z,19.99
2022-09-13T21:14:08.622Z,20.01
2022-09-13T21:16:39.566Z,20.03
2022-09-13T21:19:08.062Z,20.02
2022-09-13T21:21:40.249Z,20.00
2022-09-13T21:24:10.128Z,19.98
2022-09-13T21:26:42.110Z,19.95
2022-09-13T21:29:11.501Z,19.95
2022-09-13T21:31:39.129Z,19.93
2022-09-13T21:34:18.230Z,19.88
2022-09-13T21:36:46.413Z,19.85
2022-09-13T21:39:14.021Z,19.86
2022-09-13T21:41:41.128Z,19.82
2022-09-13T21:44:08.097Z,19.88
2022-09-13T21:46:37.278Z,19.77
2022-09-13T21:49:10.822Z,19.79
2022-09-13T21:51:48.482Z,19.78
2022-09-13T21:54:18.845Z,19.79
2022-09-13T21:56:54.121Z,19.76
2022-09-13T21:59:23.020Z,19.78
2022-09-13T22:01:52.525Z,19.81
2022-09-13T22:04:23.828Z,19.71
2022-09-13T22:06:53.524Z,19.65
2022-09-13T22:09:27.044Z,19.66
2022-09-13T22:11:55.999Z,19.68
2022-09-13T22:14:22.966Z,19.62
2022-09-13T22:16:53.063Z,19.66
2022-09-13T22:19:26.601Z,19.63
2022-09-13T22:21:56.890Z,19.65
2022-09-13T22:24:26.649Z,19.58
2022-09-13T22:26:56.467Z,19.59
2022-09-13T22:29:23.723Z,19.57
2022-09-13T22:31:52.287Z,19.54
2022-09-13T22:34:22.910Z,19.54
2022-09-13T22:36:50.282Z,19.46
2022-09-13T22:39:17.467Z,19.52
2022-09-13T22:41:44.907Z,19.37
2022-09-13T22:44:12.069Z,19.23
2022-09-13T22:46:42.565Z,19.19
2022-09-13T22:49:17.331Z,19.19
2022-09-13T22:51:45.357Z,19.25
2022-09-13T22:54:13.930Z,19.14
2022-09-13T22:56:41.576Z,19.22
2022-09-13T22:59:20.859Z,19.25
2022-09-13T23:01:48.155Z,19.25
2022-09-13T23:04:15.338Z,19.22
2022-09-13T23:06:44.093Z,19.20
2022-09-13T23:09:13.887Z,19.20
2022-09-13T23:11:41.041Z,19.23
2022-09-13T23:14:13.078Z,19.14
2022-09-13T23:16:44.254Z,19.13
2022-09-13T23:19:13.656Z,19.14
2022-09-13T23:21:41.183Z,19.20
2022-09-13T23:24:16.298Z,19.19
2022-09-13T23:26:44.970Z,19.10
2022-09-13T23:29:18.193Z,19.06
2022-09-13T23:31:47.200Z,19.03
2022-09-13T23:34:14.975Z,19.05
2022-09-13T23:36:44.136Z,19.05
2022-09-13T23:39:16.794Z,19.06
2022-09-13T23:41:46.236Z,19.10
2022-09-13T23:44:13.342Z,19.15
2022-09-13T23:46:40.234Z,19.14
2022-09-13T23:49:06.979Z,19.13
2022-09-13T23:51:33.785Z,19.11
2022-09-13T23:54:01.226Z,19.14
2022-09-13T23:56:30.998Z,19.11
2022-09-13T23:58:59.722Z,19.12
